sensor_id;sensor_type;location;lat;lon;timestamp;P1;durP1;ratioP1;P2;durP2;ratioP2
32800;SDS011;40572;45.552;12.072;2022-09-06T00:01:58;6.77;;;6.17;;
32800;SDS011;40572;45.552;12.072;2022-09-06T00:04:24;7.17;;;6.00;;
32800;SDS011;40572;45.552;12.072;2022-09-06T00:06:51;7.07;;;5.53;;
32800;SDS011;40572;45.552;12.072;2022-09-06T00:11:42;6.60;;;6.00;;
32800;SDS011;40572;45.552;12.072;2022-09-06T00:14:09;8.60;;;7.77;;
32800;SDS011;40572;45.552;12.072;2022-09-06T00:16:35;8.27;;;7.40;;
32800;SDS011;40572;45.552;12.072;2022-09-06T00:19:02;8.63;;;7.50;;
32800;SDS011;40572;45.552;12.072;2022-09-06T00:21:29;8.87;;;7.97;;
32800;SDS011;40572;45.552;12.072;2022-09-06T00:23:55;9.05;;;8.15;;
32800;SDS011;40572;45.552;12.072;2022-09-06T00:26:21;9.10;;;7.97;;
32800;SDS011;40572;45.552;12.072;2022-09-06T00:28:48;10.08;;;7.70;;
32800;SDS011;40572;45.552;12.072;2022-09-06T00:31:18;8.90;;;7.45;;
32800;SDS011;40572;45.552;12.072;2022-09-06T00:33:45;9.00;;;6.80;;
32800;SDS011;40572;45.552;12.072;2022-09-06T00:36:11;7.72;;;7.05;;
32800;SDS011;40572;45.552;12.072;2022-09-06T00:38:37;8.05;;;7.30;;
32800;SDS011;40572;45.552;12.072;2022-09-06T00:41:04;8.18;;;7.45;;
32800;SDS011;40572;45.552;12.072;2022-09-06T00:43:30;10.53;;;7.37;;
32800;SDS011;40572;45.552;12.072;2022-09-06T00:45:56;7.67;;;6.95;;
32800;SDS011;40572;45.552;12.072;2022-09-06T00:48:22;8.45;;;6.78;;
32800;SDS011;40572;45.552;12.072;2022-09-06T00:50:50;9.83;;;7.15;;
32800;SDS011;40572;45.552;12.072;2022-09-06T00:53:17;7.75;;;7.03;;
32800;SDS011;40572;45.552;12.072;2022-09-06T00:55:44;7.10;;;6.33;;
32800;SDS011;40572;45.552;12.072;2022-09-06T00:58:10;8.73;;;6.58;;
32800;SDS011;40572;45.552;12.072;2022-09-06T01:00:37;7.10;;;6.40;;
32800;SDS011;40572;45.552;12.072;2022-09-06T01:03:03;7.30;;;6.70;;
32800;SDS011;40572;45.552;12.072;2022-09-06T01:05:34;8.33;;;6.62;;
32800;SDS011;40572;45.552;12.072;2022-09-06T01:08:03;6.70;;;6.07;;
32800;SDS011;40572;45.552;12.072;2022-09-06T01:11:17;7.37;;;6.47;;
32800;SDS011;40572;45.552;12.072;2022-09-06T01:18:06;8.83;;;7.30;;
32800;SDS011;40572;45.552;12.072;2022-09-06T01:30:56;8.48;;;7.55;;
32800;SDS011;40572;45.552;12.072;2022-09-06T01:33:21;8.63;;;7.67;;
32800;SDS011;40572;45.552;12.072;2022-09-06T01:35:47;10.27;;;9.13;;
32800;SDS011;40572;45.552;12.072;2022-09-06T01:38:14;9.23;;;8.33;;
32800;SDS011;40572;45.552;12.072;2022-09-06T01:40:40;9.27;;;8.37;;
32800;SDS011;40572;45.552;12.072;2022-09-06T01:43:13;9.55;;;8.55;;
32800;SDS011;40572;45.552;12.072;2022-09-06T01:45:51;10.23;;;9.33;;
32800;SDS011;40572;45.552;12.072;2022-09-06T01:53:49;12.20;;;10.83;;
32800;SDS011;40572;45.552;12.072;2022-09-06T01:56:18;12.67;;;11.40;;
32800;SDS011;40572;45.552;12.072;2022-09-06T01:58:52;13.70;;;12.27;;
32800;SDS011;40572;45.552;12.072;2022-09-06T02:01:24;14.03;;;12.13;;
32800;SDS011;40572;45.552;12.072;2022-09-06T02:03:59;13.07;;;10.80;;
32800;SDS011;40572;45.552;12.072;2022-09-06T02:06:27;12.13;;;10.93;;
32800;SDS011;40572;45.552;12.072;2022-09-06T02:08:56;13.13;;;11.90;;
32800;SDS011;40572;45.552;12.072;2022-09-06T02:11:22;13.90;;;12.33;;
32800;SDS011;40572;45.552;12.072;2022-09-06T02:13:50;13.57;;;12.17;;
32800;SDS011;40572;45.552;12.072;2022-09-06T02:16:19;14.83;;;12.73;;
32800;SDS011;40572;45.552;12.072;2022-09-06T02:18:46;13.63;;;12.23;;
32800;SDS011;40572;45.552;12.072;2022-09-06T02:21:13;12.85;;;11.65;;
32800;SDS011;40572;45.552;12.072;2022-09-06T02:23:41;13.67;;;11.27;;
32800;SDS011;40572;45.552;12.072;2022-09-06T02:26:17;12.75;;;11.55;;
32800;SDS011;40572;45.552;12.072;2022-09-06T02:28:44;14.93;;;12.00;;
32800;SDS011;40572;45.552;12.072;2022-09-06T02:31:12;12.53;;;11.22;;
32800;SDS011;40572;45.552;12.072;2022-09-06T02:33:38;12.88;;;11.57;;
32800;SDS011;40572;45.552;12.072;2022-09-06T02:36:06;12.60;;;11.33;;
32800;SDS011;40572;45.552;12.072;2022-09-06T02:38:33;12.83;;;11.63;;
32800;SDS011;40572;45.552;12.072;2022-09-06T02:41:00;12.80;;;11.53;;
32800;SDS011;40572;45.552;12.072;2022-09-06T02:43:26;13.20;;;11.13;;
32800;SDS011;40572;45.552;12.072;2022-09-06T02:45:52;11.45;;;10.35;;
32800;SDS011;40572;45.552;12.072;2022-09-06T02:48:18;10.78;;;9.68;;
32800;SDS011;40572;45.552;12.072;2022-09-06T02:50:45;11.35;;;10.25;;
32800;SDS011;40572;45.552;12.072;2022-09-06T02:53:12;12.58;;;10.78;;
32800;SDS011;40572;45.552;12.072;2022-09-06T02:55:38;11.37;;;10.27;;
32800;SDS011;40572;45.552;12.072;2022-09-06T02:58:08;11.73;;;10.50;;
32800;SDS011;40572;45.552;12.072;2022-09-06T03:00:33;11.80;;;10.57;;
32800;SDS011;40572;45.552;12.072;2022-09-06T03:02:59;12.55;;;11.30;;
32800;SDS011;40572;45.552;12.072;2022-09-06T03:05:25;11.30;;;10.13;;
32800;SDS011;40572;45.552;12.072;2022-09-06T03:07:52;11.03;;;10.00;;
32800;SDS011;40572;45.552;12.072;2022-09-06T03:10:19;12.63;;;10.20;;
32800;SDS011;40572;45.552;12.072;2022-09-06T03:12:45;11.33;;;10.13;;
32800;SDS011;40572;45.552;12.072;2022-09-06T03:15:12;10.67;;;9.60;;
32800;SDS011;40572;45.552;12.072;2022-09-06T03:17:39;10.80;;;9.40;;
32800;SDS011;40572;45.552;12.072;2022-09-06T03:20:06;12.57;;;10.13;;
32800;SDS011;40572;45.552;12.072;2022-09-06T03:22:35;13.50;;;11.15;;
32800;SDS011;40572;45.552;12.072;2022-09-06T03:25:01;11.57;;;10.47;;
32800;SDS011;40572;45.552;12.072;2022-09-06T03:27:27;11.18;;;9.25;;
32800;SDS011;40572;45.552;12.072;2022-09-06T03:29:53;11.53;;;10.43;;
32800;SDS011;40572;45.552;12.072;2022-09-06T03:32:20;11.73;;;10.53;;
32800;SDS011;40572;45.552;12.072;2022-09-06T03:34:46;11.28;;;10.20;;
32800;SDS011;40572;45.552;12.072;2022-09-06T03:37:12;11.03;;;10.00;;
32800;SDS011;40572;45.552;12.072;2022-09-06T03:39:38;11.77;;;10.57;;
32800;SDS011;40572;45.552;12.072;2022-09-06T03:44:30;12.07;;;9.87;;
32800;SDS011;40572;45.552;12.072;2022-09-06T03:46:56;12.00;;;10.90;;
32800;SDS011;40572;45.552;12.072;2022-09-06T03:49:23;11.47;;;10.27;;
32800;SDS011;40572;45.552;12.072;2022-09-06T03:51:49;11.17;;;10.17;;
32800;SDS011;40572;45.552;12.072;2022-09-06T03:54:15;12.03;;;10.83;;
32800;SDS011;40572;45.552;12.072;2022-09-06T03:56:42;13.30;;;12.10;;
32800;SDS011;40572;45.552;12.072;2022-09-06T03:59:08;12.40;;;11.13;;
32800;SDS011;40572;45.552;12.072;2022-09-06T04:01:34;13.53;;;12.13;;
32800;SDS011;40572;45.552;12.072;2022-09-06T04:04:00;12.93;;;11.73;;
32800;SDS011;40572;45.552;12.072;2022-09-06T04:06:27;13.07;;;11.73;;
32800;SDS011;40572;45.552;12.072;2022-09-06T04:08:53;13.47;;;12.13;;
32800;SDS011;40572;45.552;12.072;2022-09-06T04:11:19;13.20;;;11.87;;
32800;SDS011;40572;45.552;12.072;2022-09-06T04:13:46;13.67;;;12.23;;
32800;SDS011;40572;45.552;12.072;2022-09-06T04:16:12;13.40;;;11.87;;
32800;SDS011;40572;45.552;12.072;2022-09-06T04:18:38;13.97;;;12.50;;
32800;SDS011;40572;45.552;12.072;2022-09-06T04:21:04;13.60;;;12.30;;
32800;SDS011;40572;45.552;12.072;2022-09-06T04:23:30;13.50;;;12.20;;
32800;SDS011;40572;45.552;12.072;2022-09-06T04:25:57;13.30;;;12.00;;
32800;SDS011;40572;45.552;12.072;2022-09-06T04:28:24;14.10;;;12.77;;
32800;SDS011;40572;45.552;12.072;2022-09-06T04:30:51;14.07;;;12.73;;
32800;SDS011;40572;45.552;12.072;2022-09-06T04:33:29;12.67;;;11.47;;
32800;SDS011;40572;45.552;12.072;2022-09-06T04:35:56;13.65;;;12.25;;
32800;SDS011;40572;45.552;12.072;2022-09-06T04:38:23;13.53;;;12.23;;
32800;SDS011;40572;45.552;12.072;2022-09-06T04:40:49;12.63;;;11.33;;
32800;SDS011;40572;45.552;12.072;2022-09-06T04:43:15;13.45;;;12.15;;
32800;SDS011;40572;45.552;12.072;2022-09-06T04:45:41;12.33;;;11.12;;
32800;SDS011;40572;45.552;12.072;2022-09-06T04:48:08;12.37;;;11.12;;
32800;SDS011;40572;45.552;12.072;2022-09-06T04:50:34;13.18;;;10.95;;
32800;SDS011;40572;45.552;12.072;2022-09-06T04:53:04;12.77;;;11.10;;
32800;SDS011;40572;45.552;12.072;2022-09-06T04:55:30;11.90;;;10.90;;
32800;SDS011;40572;45.552;12.072;2022-09-06T04:57:57;12.43;;;11.03;;
32800;SDS011;40572;45.552;12.072;2022-09-06T05:00:25;12.53;;;11.30;;
32800;SDS011;40572;45.552;12.072;2022-09-06T05:02:53;12.73;;;11.47;;
32800;SDS011;40572;45.552;12.072;2022-09-06T05:05:19;12.80;;;11.20;;
32800;SDS011;40572;45.552;12.072;2022-09-06T05:07:50;12.10;;;10.90;;
32800;SDS011;40572;45.552;12.072;2022-09-06T05:10:15;11.63;;;10.13;;
32800;SDS011;40572;45.552;12.072;2022-09-06T05:12:41;11.85;;;10.75;;
32800;SDS011;40572;45.552;12.072;2022-09-06T05:15:07;12.13;;;10.93;;
32800;SDS011;40572;45.552;12.072;2022-09-06T05:17:34;11.73;;;10.60;;
32800;SDS011;40572;45.552;12.072;2022-09-06T05:20:00;12.33;;;10.77;;
32800;SDS011;40572;45.552;12.072;2022-09-06T05:22:27;11.57;;;10.47;;
32800;SDS011;40572;45.552;12.072;2022-09-06T05:24:53;14.40;;;10.40;;
32800;SDS011;40572;45.552;12.072;2022-09-06T05:27:19;11.78;;;10.20;;
32800;SDS011;40572;45.552;12.072;2022-09-06T05:29:46;11.00;;;9.83;;
32800;SDS011;40572;45.552;12.072;2022-09-06T05:32:12;11.20;;;10.20;;
32800;SDS011;40572;45.552;12.072;2022-09-06T05:34:38;11.40;;;10.23;;
32800;SDS011;40572;45.552;12.072;2022-09-06T05:37:04;11.47;;;10.37;;
32800;SDS011;40572;45.552;12.072;2022-09-06T05:39:30;10.93;;;9.80;;
32800;SDS011;40572;45.552;12.072;2022-09-06T05:41:56;11.53;;;10.03;;
32800;SDS011;40572;45.552;12.072;2022-09-06T05:44:23;10.08;;;9.13;;
32800;SDS011;40572;45.552;12.072;2022-09-06T05:46:49;11.80;;;10.53;;
32800;SDS011;40572;45.552;12.072;2022-09-06T05:49:15;11.47;;;10.37;;
32800;SDS011;40572;45.552;12.072;2022-09-06T05:51:41;10.73;;;9.70;;
32800;SDS011;40572;45.552;12.072;2022-09-06T05:54:09;10.83;;;9.83;;
32800;SDS011;40572;45.552;12.072;2022-09-06T05:56:35;11.03;;;9.98;;
32800;SDS011;40572;45.552;12.072;2022-09-06T05:59:02;11.03;;;9.73;;
32800;SDS011;40572;45.552;12.072;2022-09-06T06:01:29;10.93;;;9.85;;
32800;SDS011;40572;45.552;12.072;2022-09-06T06:03:59;10.68;;;9.68;;
32800;SDS011;40572;45.552;12.072;2022-09-06T06:06:26;11.07;;;9.97;;
32800;SDS011;40572;45.552;12.072;2022-09-06T06:08:52;10.33;;;9.17;;
32800;SDS011;40572;45.552;12.072;2022-09-06T06:11:19;11.13;;;10.13;;
32800;SDS011;40572;45.552;12.072;2022-09-06T06:13:45;11.00;;;10.00;;
32800;SDS011;40572;45.552;12.072;2022-09-06T06:16:12;11.18;;;10.18;;
32800;SDS011;40572;45.552;12.072;2022-09-06T06:18:39;11.93;;;10.93;;
32800;SDS011;40572;45.552;12.072;2022-09-06T06:21:06;11.23;;;10.27;;
32800;SDS011;40572;45.552;12.072;2022-09-06T06:23:32;13.00;;;11.77;;
32800;SDS011;40572;45.552;12.072;2022-09-06T06:25:59;11.65;;;10.70;;
32800;SDS011;40572;45.552;12.072;2022-09-06T06:28:25;13.80;;;12.50;;
32800;SDS011;40572;45.552;12.072;2022-09-06T06:30:51;12.40;;;11.35;;
32800;SDS011;40572;45.552;12.072;2022-09-06T06:33:20;12.63;;;11.43;;
32800;SDS011;40572;45.552;12.072;2022-09-06T06:36:00;12.23;;;11.22;;
32800;SDS011;40572;45.552;12.072;2022-09-06T06:38:30;13.45;;;12.07;;
32800;SDS011;40572;45.552;12.072;2022-09-06T06:40:58;13.23;;;12.20;;
32800;SDS011;40572;45.552;12.072;2022-09-06T06:43:24;13.27;;;12.17;;
32800;SDS011;40572;45.552;12.072;2022-09-06T06:45:50;13.10;;;12.20;;
32800;SDS011;40572;45.552;12.072;2022-09-06T06:48:16;12.73;;;11.48;;
32800;SDS011;40572;45.552;12.072;2022-09-06T06:50:42;12.75;;;11.83;;
32800;SDS011;40572;45.552;12.072;2022-09-06T06:53:09;13.38;;;12.28;;
32800;SDS011;40572;45.552;12.072;2022-09-06T06:55:35;13.50;;;12.40;;
32800;SDS011;40572;45.552;12.072;2022-09-06T06:58:01;13.37;;;12.27;;
32800;SDS011;40572;45.552;12.072;2022-09-06T07:00:28;13.55;;;12.53;;
32800;SDS011;40572;45.552;12.072;2022-09-06T07:02:54;14.50;;;13.20;;
32800;SDS011;40572;45.552;12.072;2022-09-06T07:05:22;14.20;;;13.10;;
32800;SDS011;40572;45.552;12.072;2022-09-06T07:07:48;14.07;;;12.97;;
32800;SDS011;40572;45.552;12.072;2022-09-06T07:10:14;13.80;;;12.73;;
32800;SDS011;40572;45.552;12.072;2022-09-06T07:12:40;14.60;;;13.32;;
32800;SDS011;40572;45.552;12.072;2022-09-06T07:15:06;15.05;;;14.00;;
32800;SDS011;40572;45.552;12.072;2022-09-06T07:17:33;15.88;;;14.75;;
32800;SDS011;40572;45.552;12.072;2022-09-06T07:20:00;15.50;;;14.50;;
32800;SDS011;40572;45.552;12.072;2022-09-06T07:22:26;14.93;;;13.73;;
32800;SDS011;40572;45.552;12.072;2022-09-06T07:24:52;15.83;;;14.68;;
32800;SDS011;40572;45.552;12.072;2022-09-06T07:27:18;16.70;;;15.50;;
32800;SDS011;40572;45.552;12.072;2022-09-06T07:29:45;15.70;;;14.70;;
32800;SDS011;40572;45.552;12.072;2022-09-06T07:32:11;14.98;;;13.98;;
32800;SDS011;40572;45.552;12.072;2022-09-06T07:34:37;15.10;;;13.95;;
32800;SDS011;40572;45.552;12.072;2022-09-06T07:37:04;14.13;;;13.13;;
32800;SDS011;40572;45.552;12.072;2022-09-06T07:39:31;14.57;;;13.67;;
32800;SDS011;40572;45.552;12.072;2022-09-06T07:42:02;13.90;;;12.80;;
32800;SDS011;40572;45.552;12.072;2022-09-06T07:44:28;13.27;;;12.37;;
32800;SDS011;40572;45.552;12.072;2022-09-06T07:46:54;12.60;;;11.60;;
32800;SDS011;40572;45.552;12.072;2022-09-06T07:49:20;12.13;;;11.13;;
32800;SDS011;40572;45.552;12.072;2022-09-06T07:51:47;13.55;;;12.40;;
32800;SDS011;40572;45.552;12.072;2022-09-06T07:54:13;13.07;;;12.13;;
32800;SDS011;40572;45.552;12.072;2022-09-06T07:56:40;12.13;;;11.40;;
32800;SDS011;40572;45.552;12.072;2022-09-06T07:59:06;11.55;;;10.60;;
32800;SDS011;40572;45.552;12.072;2022-09-06T08:01:35;11.13;;;10.33;;
32800;SDS011;40572;45.552;12.072;2022-09-06T08:06:30;9.87;;;8.97;;
32800;SDS011;40572;45.552;12.072;2022-09-06T08:08:57;8.70;;;8.00;;
32800;SDS011;40572;45.552;12.072;2022-09-06T08:11:24;8.38;;;7.78;;
32800;SDS011;40572;45.552;12.072;2022-09-06T08:13:51;9.07;;;8.33;;
32800;SDS011;40572;45.552;12.072;2022-09-06T08:16:19;6.70;;;6.20;;
32800;SDS011;40572;45.552;12.072;2022-09-06T08:18:49;6.67;;;6.17;;
32800;SDS011;40572;45.552;12.072;2022-09-06T08:21:16;7.10;;;6.50;;
32800;SDS011;40572;45.552;12.072;2022-09-06T08:23:46;7.45;;;6.78;;
32800;SDS011;40572;45.552;12.072;2022-09-06T08:26:13;6.57;;;5.97;;
32800;SDS011;40572;45.552;12.072;2022-09-06T08:28:40;5.50;;;5.00;;
32800;SDS011;40572;45.552;12.072;2022-09-06T08:31:07;5.33;;;4.75;;
32800;SDS011;40572;45.552;12.072;2022-09-06T08:33:34;5.90;;;5.30;;
32800;SDS011;40572;45.552;12.072;2022-09-06T08:36:00;4.83;;;4.43;;
32800;SDS011;40572;45.552;12.072;2022-09-06T08:38:26;5.10;;;4.60;;
32800;SDS011;40572;45.552;12.072;2022-09-06T08:40:54;6.17;;;4.60;;
32800;SDS011;40572;45.552;12.072;2022-09-06T08:43:21;5.67;;;5.20;;
32800;SDS011;40572;45.552;12.072;2022-09-06T08:45:49;6.13;;;5.50;;
32800;SDS011;40572;45.552;12.072;2022-09-06T08:48:16;4.70;;;4.30;;
32800;SDS011;40572;45.552;12.072;2022-09-06T08:50:44;4.47;;;4.07;;
32800;SDS011;40572;45.552;12.072;2022-09-06T08:53:13;4.00;;;3.45;;
32800;SDS011;40572;45.552;12.072;2022-09-06T08:55:51;4.33;;;3.93;;
32800;SDS011;40572;45.552;12.072;2022-09-06T08:58:33;5.80;;;5.23;;
32800;SDS011;40572;45.552;12.072;2022-09-06T09:00:59;4.87;;;4.47;;
32800;SDS011;40572;45.552;12.072;2022-09-06T09:03:30;7.23;;;4.00;;
32800;SDS011;40572;45.552;12.072;2022-09-06T09:05:53;4.30;;;3.90;;
32800;SDS011;40572;45.552;12.072;2022-09-06T09:08:25;4.65;;;4.17;;
32800;SDS011;40572;45.552;12.072;2022-09-06T09:10:49;4.80;;;4.33;;
32800;SDS011;40572;45.552;12.072;2022-09-06T09:13:24;4.00;;;3.63;;
32800;SDS011;40572;45.552;12.072;2022-09-06T09:15:46;5.30;;;4.17;;
32800;SDS011;40572;45.552;12.072;2022-09-06T09:18:12;4.55;;;3.45;;
32800;SDS011;40572;45.552;12.072;2022-09-06T09:20:39;5.33;;;4.17;;
32800;SDS011;40572;45.552;12.072;2022-09-06T09:23:06;12.33;;;3.90;;
32800;SDS011;40572;45.552;12.072;2022-09-06T09:25:32;4.58;;;3.87;;
32800;SDS011;40572;45.552;12.072;2022-09-06T09:27:59;4.70;;;3.87;;
32800;SDS011;40572;45.552;12.072;2022-09-06T09:30:25;5.35;;;3.65;;
32800;SDS011;40572;45.552;12.072;2022-09-06T09:32:52;3.73;;;3.43;;
32800;SDS011;40572;45.552;12.072;2022-09-06T09:35:25;5.80;;;3.53;;
32800;SDS011;40572;45.552;12.072;2022-09-06T09:37:46;6.17;;;3.07;;
32800;SDS011;40572;45.552;12.072;2022-09-06T09:42:46;4.58;;;3.35;;
32800;SDS011;40572;45.552;12.072;2022-09-06T09:47:47;3.80;;;3.17;;
32800;SDS011;40572;45.552;12.072;2022-09-06T09:50:24;4.17;;;3.23;;
32800;SDS011;40572;45.552;12.072;2022-09-06T09:52:50;5.73;;;3.20;;
32800;SDS011;40572;45.552;12.072;2022-09-06T09:55:20;3.45;;;3.15;;
32800;SDS011;40572;45.552;12.072;2022-09-06T09:57:45;3.77;;;3.40;;
32800;SDS011;40572;45.552;12.072;2022-09-06T10:00:12;5.40;;;3.40;;
32800;SDS011;40572;45.552;12.072;2022-09-06T10:02:43;5.60;;;3.67;;
32800;SDS011;40572;45.552;12.072;2022-09-06T10:13:04;4.03;;;3.70;;
32800;SDS011;40572;45.552;12.072;2022-09-06T10:18:00;4.57;;;3.87;;
32800;SDS011;40572;45.552;12.072;2022-09-06T10:23:03;4.80;;;3.63;;
32800;SDS011;40572;45.552;12.072;2022-09-06T10:30:35;3.47;;;3.10;;
32800;SDS011;40572;45.552;12.072;2022-09-06T10:35:30;3.20;;;3.00;;
32800;SDS011;40572;45.552;12.072;2022-09-06T10:38:05;5.90;;;4.20;;
32800;SDS011;40572;45.552;12.072;2022-09-06T10:40:31;4.37;;;3.23;;
32800;SDS011;40572;45.552;12.072;2022-09-06T10:42:58;4.47;;;3.50;;
32800;SDS011;40572;45.552;12.072;2022-09-06T10:45:35;4.50;;;3.62;;
32800;SDS011;40572;45.552;12.072;2022-09-06T10:48:00;3.40;;;3.10;;
32800;SDS011;40572;45.552;12.072;2022-09-06T10:50:35;3.67;;;3.30;;
32800;SDS011;40572;45.552;12.072;2022-09-06T10:53:04;4.00;;;3.13;;
32800;SDS011;40572;45.552;12.072;2022-09-06T10:55:28;4.30;;;3.23;;
32800;SDS011;40572;45.552;12.072;2022-09-06T10:57:56;3.70;;;3.40;;
32800;SDS011;40572;45.552;12.072;2022-09-06T11:00:26;3.93;;;3.60;;
32800;SDS011;40572;45.552;12.072;2022-09-06T11:03:15;7.57;;;3.90;;
32800;SDS011;40572;45.552;12.072;2022-09-06T11:05:45;3.93;;;3.63;;
32800;SDS011;40572;45.552;12.072;2022-09-06T11:08:14;5.30;;;3.70;;
32800;SDS011;40572;45.552;12.072;2022-09-06T11:10:41;4.60;;;3.65;;
32800;SDS011;40572;45.552;12.072;2022-09-06T11:19:09;5.63;;;4.53;;
32800;SDS011;40572;45.552;12.072;2022-09-06T11:21:06;5.40;;;4.70;;
32800;SDS011;40572;45.552;12.072;2022-09-06T11:23:31;4.42;;;4.10;;
32800;SDS011;40572;45.552;12.072;2022-09-06T11:28:43;7.73;;;4.87;;
32800;SDS011;40572;45.552;12.072;2022-09-06T11:31:01;7.13;;;5.60;;
32800;SDS011;40572;45.552;12.072;2022-09-06T11:33:29;5.93;;;4.93;;
32800;SDS011;40572;45.552;12.072;2022-09-06T11:36:31;6.47;;;5.00;;
32800;SDS011;40572;45.552;12.072;2022-09-06T11:38:24;8.03;;;5.10;;
32800;SDS011;40572;45.552;12.072;2022-09-06T11:40:57;5.97;;;5.00;;
32800;SDS011;40572;45.552;12.072;2022-09-06T11:43:41;6.97;;;4.67;;
32800;SDS011;40572;45.552;12.072;2022-09-06T11:46:07;7.60;;;4.53;;
32800;SDS011;40572;45.552;12.072;2022-09-06T11:48:48;4.17;;;3.85;;
32800;SDS011;40572;45.552;12.072;2022-09-06T11:51:23;7.40;;;4.03;;
32800;SDS011;40572;45.552;12.072;2022-09-06T11:56:22;13.17;;;5.43;;
32800;SDS011;40572;45.552;12.072;2022-09-06T11:58:46;5.83;;;4.77;;
32800;SDS011;40572;45.552;12.072;2022-09-06T12:06:16;9.63;;;6.33;;
32800;SDS011;40572;45.552;12.072;2022-09-06T12:08:44;9.13;;;5.50;;
32800;SDS011;40572;45.552;12.072;2022-09-06T12:13:54;9.43;;;6.72;;
32800;SDS011;40572;45.552;12.072;2022-09-06T12:16:21;8.10;;;5.37;;
32800;SDS011;40572;45.552;12.072;2022-09-06T12:24:00;9.17;;;5.87;;
32800;SDS011;40572;45.552;12.072;2022-09-06T12:26:46;6.10;;;5.50;;
32800;SDS011;40572;45.552;12.072;2022-09-06T12:29:12;7.67;;;6.93;;
32800;SDS011;40572;45.552;12.072;2022-09-06T12:31:39;6.47;;;5.67;;
32800;SDS011;40572;45.552;12.072;2022-09-06T12:34:08;8.83;;;6.77;;
32800;SDS011;40572;45.552;12.072;2022-09-06T12:36:35;13.17;;;6.20;;
32800;SDS011;40572;45.552;12.072;2022-09-06T12:39:07;4.92;;;4.53;;
32800;SDS011;40572;45.552;12.072;2022-09-06T12:41:35;9.20;;;6.07;;
32800;SDS011;40572;45.552;12.072;2022-09-06T12:43:59;8.80;;;7.07;;
32800;SDS011;40572;45.552;12.072;2022-09-06T12:46:27;8.57;;;7.37;;
32800;SDS011;40572;45.552;12.072;2022-09-06T12:49:15;7.30;;;6.57;;
32800;SDS011;40572;45.552;12.072;2022-09-06T12:51:25;6.67;;;4.50;;
32800;SDS011;40572;45.552;12.072;2022-09-06T12:53:53;5.90;;;5.37;;
32800;SDS011;40572;45.552;12.072;2022-09-06T12:56:20;6.93;;;6.20;;
32800;SDS011;40572;45.552;12.072;2022-09-06T12:58:46;6.73;;;6.13;;
32800;SDS011;40572;45.552;12.072;2022-09-06T13:01:19;4.33;;;4.00;;
32800;SDS011;40572;45.552;12.072;2022-09-06T13:06:27;4.97;;;3.93;;
32800;SDS011;40572;45.552;12.072;2022-09-06T13:08:55;4.43;;;4.03;;
32800;SDS011;40572;45.552;12.072;2022-09-06T13:11:24;6.07;;;4.67;;
32800;SDS011;40572;45.552;12.072;2022-09-06T13:13:51;7.00;;;3.80;;
32800;SDS011;40572;45.552;12.072;2022-09-06T13:16:27;4.72;;;4.33;;
32800;SDS011;40572;45.552;12.072;2022-09-06T13:18:49;4.53;;;4.10;;
32800;SDS011;40572;45.552;12.072;2022-09-06T13:21:29;5.12;;;3.98;;
32800;SDS011;40572;45.552;12.072;2022-09-06T13:23:57;4.40;;;4.00;;
32800;SDS011;40572;45.552;12.072;2022-09-06T13:26:33;5.63;;;4.23;;
32800;SDS011;40572;45.552;12.072;2022-09-06T13:31:53;5.97;;;4.00;;
32800;SDS011;40572;45.552;12.072;2022-09-06T13:34:25;10.33;;;9.37;;
32800;SDS011;40572;45.552;12.072;2022-09-06T13:36:53;13.87;;;11.40;;
32800;SDS011;40572;45.552;12.072;2022-09-06T13:39:29;13.53;;;11.40;;
32800;SDS011;40572;45.552;12.072;2022-09-06T13:42:02;9.50;;;5.90;;
32800;SDS011;40572;45.552;12.072;2022-09-06T13:44:29;5.67;;;4.00;;
32800;SDS011;40572;45.552;12.072;2022-09-06T13:46:56;13.70;;;10.33;;
32800;SDS011;40572;45.552;12.072;2022-09-06T13:49:22;7.07;;;3.97;;
32800;SDS011;40572;45.552;12.072;2022-09-06T13:51:49;4.77;;;4.20;;
32800;SDS011;40572;45.552;12.072;2022-09-06T13:54:16;8.70;;;7.30;;
32800;SDS011;40572;45.552;12.072;2022-09-06T13:56:42;5.25;;;3.77;;
32800;SDS011;40572;45.552;12.072;2022-09-06T13:59:09;8.33;;;5.97;;
32800;SDS011;40572;45.552;12.072;2022-09-06T14:01:36;6.37;;;4.33;;
32800;SDS011;40572;45.552;12.072;2022-09-06T14:04:02;14.40;;;10.23;;
32800;SDS011;40572;45.552;12.072;2022-09-06T14:06:28;12.70;;;8.65;;
32800;SDS011;40572;45.552;12.072;2022-09-06T14:08:55;10.15;;;7.92;;
32800;SDS011;40572;45.552;12.072;2022-09-06T14:11:24;9.30;;;6.37;;
32800;SDS011;40572;45.552;12.072;2022-09-06T14:13:50;11.97;;;7.65;;
32800;SDS011;40572;45.552;12.072;2022-09-06T14:16:16;4.12;;;2.95;;
32800;SDS011;40572;45.552;12.072;2022-09-06T14:18:43;6.22;;;5.40;;
32800;SDS011;40572;45.552;12.072;2022-09-06T14:21:09;6.50;;;5.03;;
32800;SDS011;40572;45.552;12.072;2022-09-06T14:23:35;9.88;;;7.28;;
32800;SDS011;40572;45.552;12.072;2022-09-06T14:26:02;7.75;;;3.25;;
32800;SDS011;40572;45.552;12.072;2022-09-06T14:28:33;5.10;;;3.95;;
32800;SDS011;40572;45.552;12.072;2022-09-06T14:30:56;4.75;;;3.02;;
32800;SDS011;40572;45.552;12.072;2022-09-06T14:33:23;3.17;;;2.83;;
32800;SDS011;40572;45.552;12.072;2022-09-06T14:35:49;13.10;;;7.47;;
32800;SDS011;40572;45.552;12.072;2022-09-06T14:38:15;8.58;;;5.42;;
32800;SDS011;40572;45.552;12.072;2022-09-06T14:40:41;7.20;;;4.10;;
32800;SDS011;40572;45.552;12.072;2022-09-06T14:43:10;22.20;;;12.68;;
32800;SDS011;40572;45.552;12.072;2022-09-06T14:45:37;34.05;;;18.20;;
32800;SDS011;40572;45.552;12.072;2022-09-06T14:48:03;30.15;;;16.35;;
32800;SDS011;40572;45.552;12.072;2022-09-06T14:50:30;9.03;;;6.75;;
32800;SDS011;40572;45.552;12.072;2022-09-06T14:52:56;5.65;;;3.27;;
32800;SDS011;40572;45.552;12.072;2022-09-06T14:55:22;14.07;;;9.13;;
32800;SDS011;40572;45.552;12.072;2022-09-06T14:57:49;9.57;;;6.77;;
32800;SDS011;40572;45.552;12.072;2022-09-06T15:00:15;7.47;;;6.27;;
32800;SDS011;40572;45.552;12.072;2022-09-06T15:02:42;5.17;;;3.60;;
32800;SDS011;40572;45.552;12.072;2022-09-06T15:05:08;3.62;;;2.70;;
32800;SDS011;40572;45.552;12.072;2022-09-06T15:07:35;3.00;;;2.57;;
32800;SDS011;40572;45.552;12.072;2022-09-06T15:10:02;6.10;;;4.53;;
32800;SDS011;40572;45.552;12.072;2022-09-06T15:12:28;6.97;;;4.73;;
32800;SDS011;40572;45.552;12.072;2022-09-06T15:14:55;6.10;;;5.50;;
32800;SDS011;40572;45.552;12.072;2022-09-06T15:17:22;15.87;;;11.10;;
32800;SDS011;40572;45.552;12.072;2022-09-06T15:19:48;15.48;;;11.35;;
32800;SDS011;40572;45.552;12.072;2022-09-06T15:22:15;11.37;;;7.47;;
32800;SDS011;40572;45.552;12.072;2022-09-06T15:24:41;8.20;;;6.10;;
32800;SDS011;40572;45.552;12.072;2022-09-06T15:27:07;8.23;;;5.37;;
32800;SDS011;40572;45.552;12.072;2022-09-06T15:29:33;7.15;;;3.60;;
32800;SDS011;40572;45.552;12.072;2022-09-06T15:31:59;5.80;;;4.57;;
32800;SDS011;40572;45.552;12.072;2022-09-06T15:34:25;6.78;;;5.70;;
32800;SDS011;40572;45.552;12.072;2022-09-06T15:36:51;4.20;;;3.77;;
32800;SDS011;40572;45.552;12.072;2022-09-06T15:39:18;4.47;;;3.13;;
32800;SDS011;40572;45.552;12.072;2022-09-06T15:41:44;5.90;;;4.63;;
32800;SDS011;40572;45.552;12.072;2022-09-06T15:44:11;4.67;;;4.22;;
32800;SDS011;40572;45.552;12.072;2022-09-06T15:49:06;3.67;;;2.35;;
32800;SDS011;40572;45.552;12.072;2022-09-06T15:51:34;5.03;;;3.67;;